createdAt,value
2023-02-06T09:11:12.684Z,4.70
2023-02-06T09:34:54.073Z,3.87
2023-02-06T09:38:24.411Z,3.91
2023-02-06T09:41:54.090Z,3.93
2023-02-06T09:45:33.240Z,3.79
2023-02-06T09:49:02.470Z,3.65
2023-02-06T09:52:32.117Z,3.68
2023-02-06T09:56:05.307Z,3.67
2023-02-06T09:59:34.857Z,3.61
2023-02-06T10:03:10.097Z,3.45
2023-02-06T10:06:55.040Z,3.18
2023-02-06T10:10:27.789Z,2.98
2023-02-06T10:14:08.940Z,2.82
2023-02-06T10:18:06.225Z,2.63
2023-02-06T10:21:38.107Z,2.41
2023-02-06T10:25:22.600Z,2.24
2023-02-06T10:28:57.325Z,2.11
2023-02-06T10:32:29.502Z,1.90
2023-02-06T10:36:17.262Z,1.80
2023-02-06T10:39:49.622Z,1.67
2023-02-06T10:43:27.686Z,1.46
2023-02-06T10:46:56.020Z,1.37
2023-02-06T10:50:27.973Z,1.23
2023-02-06T10:54:09.431Z,1.08
2023-02-06T10:57:33.044Z,1.06
2023-02-06T11:01:04.139Z,1.01
2023-02-06T11:04:31.400Z,0.99
2023-02-06T11:08:03.574Z,0.98
2023-02-06T11:11:33.236Z,0.96
2023-02-06T11:15:02.785Z,0.93
2023-02-06T11:18:32.947Z,1.00
2023-02-06T11:22:00.754Z,1.10
2023-02-06T11:25:39.214Z,1.19
2023-02-06T11:29:15.670Z,1.13
2023-02-06T11:33:02.655Z,1.09
2023-02-06T11:36:40.176Z,1.11
2023-02-06T11:40:22.345Z,1.20
2023-02-06T11:43:53.922Z,1.28
2023-02-06T11:47:26.115Z,1.35
2023-02-06T11:50:56.219Z,1.39
2023-02-06T11:54:37.596Z,1.18
2023-02-06T11:58:13.788Z,1.17
2023-02-06T12:01:43.742Z,1.20
2023-02-06T12:05:13.677Z,1.16
2023-02-06T12:08:31.920Z,1.11
2023-02-06T12:12:01.650Z,1.07
2023-02-06T12:15:46.654Z,0.99
2023-02-06T12:19:20.428Z,0.89
2023-02-06T12:22:49.053Z,0.83
2023-02-06T12:26:27.387Z,0.74
2023-02-06T12:30:05.935Z,0.66
2023-02-06T12:33:56.446Z,0.62
2023-02-06T12:37:25.524Z,0.57
2023-02-06T12:40:54.655Z,0.52
2023-02-06T12:44:24.544Z,0.46
2023-02-06T12:47:53.055Z,0.44
2023-02-06T12:51:27.831Z,0.43
2023-02-06T12:54:59.814Z,0.41
2023-02-06T12:58:28.840Z,0.41
2023-02-06T13:02:03.683Z,0.44
2023-02-06T13:05:26.518Z,0.47
2023-02-06T13:08:56.516Z,0.49
2023-02-06T13:12:25.377Z,0.48
2023-02-06T13:16:00.543Z,0.54
2023-02-06T13:19:35.699Z,0.57
2023-02-06T13:23:20.119Z,0.59
2023-02-06T13:26:50.000Z,0.60
2023-02-06T13:30:28.529Z,0.59
2023-02-06T13:33:56.624Z,0.58
2023-02-06T13:37:26.271Z,0.56
2023-02-06T13:41:05.748Z,0.55
2023-02-06T13:44:41.544Z,0.53
2023-02-06T13:48:14.917Z,0.48
2023-02-06T14:00:15.975Z,0.42
2023-02-06T14:03:52.304Z,0.42
2023-02-06T14:07:26.152Z,0.40
2023-02-06T14:10:57.790Z,0.37
2023-02-06T14:51:36.708Z,0.19
2023-02-06T15:06:41.230Z,-0.24
2023-02-06T15:10:29.791Z,-0.36
2023-02-06T15:18:02.211Z,-0.62
2023-02-06T15:21:07.514Z,-0.79
2023-02-06T15:31:27.350Z,-1.50
2023-02-06T15:39:31.711Z,-1.93
2023-02-06T15:43:01.983Z,-2.09
2023-02-06T15:50:20.867Z,-2.36
2023-02-06T15:53:59.479Z,-2.46
2023-02-06T16:01:36.228Z,-2.71
2023-02-06T16:05:13.268Z,-2.84
2023-02-06T16:08:47.732Z,-2.97
2023-02-06T16:12:20.102Z,-3.10
2023-02-06T16:19:32.772Z,-3.46
2023-02-06T16:26:22.964Z,-3.82
2023-02-06T16:29:02.862Z,-3.89
2023-02-06T16:31:36.105Z,-3.91
2023-02-06T16:35:07.002Z,-3.94
2023-02-06T16:37:36.082Z,-4.04
2023-02-06T16:40:08.095Z,-4.10
2023-02-06T16:42:39.971Z,-4.15
2023-02-06T16:45:22.928Z,-4.20
2023-02-06T16:47:58.142Z,-4.27
2023-02-06T16:50:42.648Z,-4.34
2023-02-06T16:53:27.795Z,-4.40
2023-02-06T16:56:16.213Z,-4.46
2023-02-06T16:58:52.310Z,-4.56
2023-02-06T17:01:26.284Z,-4.61
2023-02-06T17:03:58.215Z,-4.65
2023-02-06T17:06:33.678Z,-4.72
2023-02-06T17:09:15.031Z,-4.78
2023-02-06T17:11:45.350Z,-4.81
2023-02-06T17:14:17.426Z,-4.85
2023-02-06T17:16:50.369Z,-4.91
2023-02-06T17:19:29.645Z,-5.00
2023-02-06T17:22:05.823Z,-5.06
2023-02-06T17:24:38.402Z,-5.10
2023-02-06T17:27:21.449Z,-5.16
2023-02-06T17:29:54.366Z,-5.20
2023-02-06T17:32:44.556Z,-5.21
2023-02-06T17:35:36.548Z,-5.24
2023-02-06T17:38:13.588Z,-5.24
2023-02-06T17:40:49.702Z,-5.24
2023-02-06T17:46:15.085Z,-5.29
2023-02-06T17:48:50.093Z,-5.37
2023-02-06T17:51:32.047Z,-5.45
2023-02-06T17:54:06.667Z,-5.50
2023-02-06T17:56:40.202Z,-5.55
2023-02-06T17:59:13.566Z,-5.61
2023-02-06T18:02:07.743Z,-5.66
2023-02-06T18:04:50.809Z,-5.72
2023-02-06T18:07:22.287Z,-5.76
2023-02-06T18:09:56.444Z,-5.79
2023-02-06T18:12:37.785Z,-5.83
2023-02-06T18:15:22.705Z,-5.88
2023-02-06T18:17:56.160Z,-5.91
2023-02-06T18:20:28.740Z,-5.96
2023-02-06T18:22:59.555Z,-6.02
2023-02-06T18:25:30.476Z,-6.08
2023-02-06T18:28:00.469Z,-6.14
2023-02-06T18:30:29.869Z,-6.20
2023-02-06T18:33:01.049Z,-6.27
2023-02-06T18:35:59.265Z,-6.35
2023-02-06T18:38:30.362Z,-6.40
2023-02-06T18:41:28.419Z,-6.44
2023-02-06T18:44:02.490Z,-6.46
2023-02-06T18:46:33.358Z,-6.48
2023-02-06T18:49:03.721Z,-6.53
2023-02-06T18:51:33.809Z,-6.58
2023-02-06T18:54:04.089Z,-6.62
2023-02-06T18:56:34.838Z,-6.67
2023-02-06T18:59:07.360Z,-6.72
2023-02-06T19:01:44.645Z,-6.74
2023-02-06T19:04:15.719Z,-6.76
2023-02-06T19:06:47.612Z,-6.81
2023-02-06T19:09:20.848Z,-6.84
2023-02-06T19:11:50.890Z,-6.85
2023-02-06T19:14:28.062Z,-6.87
2023-02-06T19:16:59.406Z,-6.92
2023-02-06T19:19:28.997Z,-6.98
2023-02-06T19:22:00.019Z,-7.03
2023-02-06T19:24:31.161Z,-7.08
2023-02-06T19:27:09.763Z,-7.08
2023-02-06T19:29:40.703Z,-7.06
2023-02-06T19:32:12.055Z,-7.05
2023-02-06T19:34:45.568Z,-7.04
2023-02-06T19:37:16.819Z,-7.04
2023-02-06T19:39:48.564Z,-7.04
2023-02-06T19:42:19.852Z,-7.04
2023-02-06T19:44:57.850Z,-7.06
2023-02-06T19:47:26.940Z,-7.10
2023-02-06T19:49:58.221Z,-7.15
2023-02-06T19:52:32.340Z,-7.21
2023-02-06T19:55:05.088Z,-7.30
2023-02-06T19:57:35.229Z,-7.39
2023-02-06T20:00:06.801Z,-7.48
2023-02-06T20:02:38.357Z,-7.54
2023-02-06T20:05:08.601Z,-7.57
2023-02-06T20:07:40.239Z,-7.58
2023-02-06T20:10:14.888Z,-7.58
2023-02-06T20:12:48.060Z,-7.59
2023-02-06T20:15:21.250Z,-7.58
2023-02-06T20:17:56.854Z,-7.62
2023-02-06T20:20:27.792Z,-7.68
2023-02-06T20:22:57.373Z,-7.74
2023-02-06T20:25:28.809Z,-7.78
2023-02-06T20:28:00.156Z,-7.78
2023-02-06T20:30:33.502Z,-7.75
2023-02-06T20:33:03.190Z,-7.75
2023-02-06T20:35:34.300Z,-7.75
2023-02-06T20:38:04.242Z,-7.75
2023-02-06T20:40:33.808Z,-7.74
2023-02-06T20:43:02.825Z,-7.68
2023-02-06T20:45:38.035Z,-7.63
2023-02-06T20:48:09.347Z,-7.60
2023-02-06T20:50:40.707Z,-7.59
2023-02-06T20:53:11.809Z,-7.54
2023-02-06T20:55:48.119Z,-7.49
2023-02-06T20:58:19.807Z,-7.44
2023-02-06T21:00:52.238Z,-7.38
2023-02-06T21:03:22.413Z,-7.39
2023-02-06T21:06:02.491Z,-7.51
2023-02-06T21:08:31.276Z,-7.56
2023-02-06T21:11:02.243Z,-7.52
2023-02-06T21:13:50.873Z,-7.51
2023-02-06T21:16:22.614Z,-7.53
2023-02-06T21:18:56.207Z,-7.55
2023-02-06T21:22:04.899Z,-7.54
2023-02-06T21:25:28.514Z,-7.57
2023-02-06T21:28:52.454Z,-7.62
2023-02-06T21:36:41.262Z,-7.94
2023-02-06T21:39:58.173Z,-8.06
2023-02-06T21:43:15.256Z,-8.12
2023-02-06T21:46:45.705Z,-8.16
2023-02-06T21:50:39.341Z,-8.14
2023-02-06T21:54:30.522Z,-8.15
2023-02-06T21:57:54.050Z,-8.11
2023-02-06T22:01:27.045Z,-8.06
2023-02-06T22:04:38.552Z,-8.02
2023-02-06T22:08:25.192Z,-8.10
2023-02-06T22:12:05.369Z,-8.05
2023-02-06T22:16:00.317Z,-7.96
2023-02-06T22:19:35.079Z,-7.95
2023-02-06T22:23:06.655Z,-7.94
2023-02-06T22:26:14.940Z,-7.85
2023-02-06T22:29:22.419Z,-7.77
2023-02-06T22:32:56.250Z,-7.70
2023-02-06T22:40:21.870Z,-7.55
2023-02-06T22:43:10.168Z,-7.56
2023-02-06T22:47:00.017Z,-7.59
2023-02-06T22:50:32.513Z,-7.65
2023-02-06T22:53:25.103Z,-7.65
2023-02-06T22:57:18.001Z,-7.66
2023-02-06T22:59:49.243Z,-7.75
2023-02-06T23:02:22.953Z,-7.81
2023-02-06T23:05:32.176Z,-7.84
2023-02-06T23:09:08.581Z,-7.88
2023-02-06T23:12:19.851Z,-7.90
2023-02-06T23:16:05.237Z,-7.91
2023-02-06T23:26:32.525Z,-7.86
2023-02-06T23:29:56.364Z,-7.82
2023-02-06T23:37:43.358Z,-7.83
2023-02-06T23:41:02.337Z,-7.78
2023-02-06T23:44:47.250Z,-7.66
2023-02-06T23:48:38.753Z,-7.70
2023-02-06T23:52:16.265Z,-7.74
2023-02-06T23:58:53.085Z,-7.88
